Aérodrome :
LOGIN :

S'inscrire | Disclaimer

   EN    FR    IT 

 










Légende :    VFR   VFR Marginal   IFR   IFR Intensif   IFR Très Intensif
Visi : 
Plafond : 
>= 8 km
>= 3000ft
5 à 8 km
1000 à 3000 ft
1500m à 5 km
500 à 1000 ft
800 à 1500m
200 à 500 ft
< 800m
< 200 ft
Symboles :   Orages  Brouillard  Fortes neiges  Fortes précipitations  Vent > 20 kt
SIGMETs :   Divers  Orages  Givrage  Turbulence  Onde Orograph.  Cendres Volcan.







- Altitude de l'aérodrome : 989 ft
- Code IATA : TRN


LIMF - Torino Caselle

DERNIER METAR :
  • 281150Z 17007KT 130V210 CAVOK 14/03 Q1007

METARs EXPIRÉS :
  • 281120Z 18008KT 150V220 CAVOK 14/04 Q1007
  • 281050Z 19009KT CAVOK 13/04 Q1006
  • 281020Z 19011KT 9999 FEW120 13/05 Q1006
  • 280950Z 20013KT 9999 FEW110 12/04 Q1006
  • 280920Z 20011KT 9999 SCT100 11/04 Q1006
  • 280850Z 20010KT 9999 FEW020 SCT110 11/04 Q1006

TAF TAF LIMF
Valide du 28 à 12h jusqu'au 29 à 12h UTC


281100Z 2812/2912 28010KT 9999 SCT090
BECMG 2906/2908 07006KT
Pas de NOTAMs connus pour ce terrain.
4 SIGMETs publiés pour la FIR Milano (LIMM) :
 
LIMM SIGMET 25 VALID 281106/281210 LIMM- LIMM MILANO FIR CNL SIGMET 24 280910/281210=
Orages noyés dans la masse
LIMM SIGMET 24 VALID 280910/281210 LIMM- LIMM MILANO FIR EMBD TS OBS WI N4627 E01111 - N4649 E01219 - N4632 E01344 - N4605 E01338 - N4602 E01056 - N4627 E01111 TOP FL230 STNR NC=
LIMM SIGMET 23 VALID 280930/281230 LIMM- LIMM MILANO FIR SEV TURB OBS/FCST WI N4555 E00703 - N4711 E01201 - N4632 E01344 - N4540 E01342 - N4518 E01251 - N4330 E01430 - N4343 E01204 - N4449 E00858 - N4551 E01140 - N4620 E01111 - N4531 E00703 - N4555 E00703 FL250/380 MOV E NC=
Onde orographique forte
LIMM SIGMET 22 VALID 280900/281200 LIMM- LIMM MILANO FIR SEV MTW FCST WI N4431 E01110 - N4419 E01027 - N4339 E01152 - N4331 E01341 - N4410 E01233 - N4440 E01154 - N4431 E01110 FL060/150 STNR NC=



MET'MAP, la Météo Aéronautique d'un coup d'oeil ! - Copyright ORBIFLY Décembre 2007 - Disclaimer

ORBIFLY MET'MAP TEAM :

Programmation & Développement : Alexandra Zaïnal
Conception & Développement : Baudouin d'Aumeries
Co-Programmation & Développement : Marc-Olivier Méhu
Soutien technique & logistique : Manuel Goepfert

Contact : metmap@orbifly.com




SOURCES & CREDITS :

   NOAA